Pelican of London — MWAQ — position and weather

sailwx.info

Track history (hours):
 
Tides and Currents Weather Stations Pressure Air Temp Water Temp Dewpoint Dewpoint Depression Visibility Wind Speed Wind Dir Waves Ship Positions

Pelican of London

Ship's website: http://www.adventureundersail.com/

Last reported at 2019-Sep-16 11:19 UTC. Time now 2019-Sep-21 21:23 UTC.
Position N 43°27' W 003°49'.

Length 35 m; draft 4 m.

Type: Other ship. MMSI: 235057366.

Date/timePositionNaut miles runAvg speedWind from/ knotsBaromVisibWave heightAir tempDewpointWater temp
2019-Sep-16 11:19N 43°27' W 003°49'1 0.1
2019-Sep-15 19:53N 43°28' W 003°48'0 0.0
2019-Sep-15 19:09N 43°28' W 003°48'0 0.0
2019-Sep-15 11:17N 43°28' W 003°48'0 0.0
2019-Sep-15 10:51N 43°28' W 003°48'0 0.0
2019-Sep-15 10:26N 43°28' W 003°48'0 0.0
2019-Sep-15 07:46N 43°28' W 003°48'0 0.0
2019-Sep-15 07:25N 43°28' W 003°48'0 0.0
2019-Sep-15 06:41N 43°28' W 003°48'0 0.0
2019-Sep-15 06:10N 43°28' W 003°48'0 0.0
2019-Sep-15 05:40N 43°28' W 003°48'0 0.0
2019-Sep-15 05:29N 43°28' W 003°48'0 0.0
2019-Sep-15 01:04N 43°28' W 003°48'0 0.0
2019-Sep-15 00:20N 43°28' W 003°48'0 0.0
2019-Sep-15 00:00N 43°28' W 003°48'0 0.0
2019-Sep-14 23:21N 43°28' W 003°48'0 0.0
2019-Sep-14 22:39N 43°28' W 003°48'0 0.0
2019-Sep-14 22:04N 43°28' W 003°48'0 0.0
2019-Sep-14 21:11N 43°28' W 003°48'0 0.0
2019-Sep-14 21:00N 43°28' W 003°48'0 0.0
2019-Sep-14 20:30N 43°28' W 003°48'0 0.0
2019-Sep-14 19:47N 43°28' W 003°48'0 0.0
2019-Sep-14 19:29N 43°28' W 003°48'0 0.0
2019-Sep-14 19:00N 43°28' W 003°48'0 0.0
2019-Sep-13 20:20N 43°28' W 003°48'0 0.0
2019-Sep-13 17:13N 43°28' W 003°48'0 0.0
2019-Sep-13 13:09N 43°28' W 003°48'0 0.0
2019-Sep-13 12:56N 43°28' W 003°48'0 0.0
2019-Sep-13 11:32N 43°28' W 003°48'0 0.0
2019-Sep-13 11:26N 43°28' W 003°48'0 0.0
2019-Sep-13 10:37N 43°28' W 003°48'0 0.0
2019-Sep-13 10:24N 43°28' W 003°48'0 0.0
2019-Sep-13 09:48N 43°28' W 003°48'0 0.0
2019-Sep-13 09:28N 43°28' W 003°48'0 0.0
2019-Sep-13 08:51N 43°28' W 003°48'0 0.0
2019-Sep-13 08:27N 43°28' W 003°48'0 0.0
2019-Sep-13 07:59N 43°28' W 003°48'0 0.0
2019-Sep-13 05:14N 43°28' W 003°48'0 0.0
2019-Sep-13 03:37N 43°28' W 003°48'0 0.0
2019-Sep-13 03:26N 43°28' W 003°48'0 0.0
2019-Sep-13 00:26N 43°28' W 003°48'0 0.0
2019-Sep-12 23:38N 43°28' W 003°48'0 0.1
2019-Sep-12 23:30N 43°28' W 003°48'0 0.0
2019-Sep-12 21:35N 43°28' W 003°48'0 0.0
2019-Sep-12 21:21N 43°28' W 003°48'0 0.0
2019-Sep-12 19:26N 43°28' W 003°48'0 0.0
2019-Sep-12 18:34N 43°28' W 003°48'0 0.0
2019-Sep-12 17:25N 43°28' W 003°48'0 0.0
2019-Sep-12 16:55N 43°28' W 003°48'0 0.0
2019-Sep-12 16:26N 43°28' W 003°48'0 0.0
2019-Sep-12 15:51N 43°28' W 003°48'0 0.0
2019-Sep-12 12:07N 43°28' W 003°48'0 0.0
2019-Sep-12 11:51N 43°28' W 003°48'0 0.0
2019-Sep-12 06:47N 43°28' W 003°48'0 0.0
2019-Sep-12 06:29N 43°28' W 003°48'0 0.0
2019-Sep-12 05:58N 43°28' W 003°48'0 0.0
2019-Sep-12 05:27N 43°28' W 003°48'0 0.0
2019-Sep-12 04:59N 43°28' W 003°48'0 0.0
2019-Sep-12 04:29N 43°28' W 003°48'0 0.0
2019-Sep-12 03:59N 43°28' W 003°48'0 0.0
2019-Sep-11 20:07N 43°28' W 003°48'0 0.0
2019-Sep-11 14:07N 43°28' W 003°48'0 0.0
2019-Sep-11 13:47N 43°28' W 003°48'0 0.0
2019-Sep-11 13:05N 43°28' W 003°48'0 0.1
2019-Sep-11 13:00N 43°28' W 003°48'5 2.6
2019-Sep-11 11:00N 43°33' W 003°47'2 4.8
2019-Sep-11 10:30N 43°35' W 003°49'4 4.9
2019-Sep-11 09:45N 43°38' W 003°51'  
2019-Sep-07 16:55N 51°20' W 008°12'2 5.3
2019-Sep-07 16:31N 51°22' W 008°12'3 5.4
2019-Sep-07 16:00N 51°25' W 008°13'3 5.4
2019-Sep-07 15:30N 51°27' W 008°14'3 5.1
2019-Sep-07 15:01N 51°30' W 008°14'2 4.7
2019-Sep-07 14:30N 51°32' W 008°15'2 4.9
2019-Sep-07 14:00N 51°34' W 008°15'3 5.0
2019-Sep-07 13:30N 51°37' W 008°15'3 5.0
2019-Sep-07 13:00N 51°40' W 008°16'3 5.2
2019-Sep-07 12:31N 51°42' W 008°16'3 5.5
2019-Sep-07 12:00N 51°45' W 008°16'3 5.4
2019-Sep-07 11:30N 51°48' W 008°16'2 4.5
2019-Sep-07 11:00N 51°50' W 008°16'1 2.8
2019-Sep-07 10:30N 51°51' W 008°18'1 2.8
2019-Sep-07 10:00N 51°51' W 008°20'2 3.8
2019-Sep-07 09:30N 51°53' W 008°21'2 4.2
2019-Sep-07 09:01N 51°54' W 008°24'2 3.8
2019-Sep-07 08:30N 51°54' W 008°28'0 0.2
2019-Sep-07 07:48N 51°54' W 008°28'0 0.0
2019-Sep-07 07:09N 51°54' W 008°28'0 0.1
2019-Sep-07 06:51N 51°54' W 008°28'0 0.0
2019-Sep-07 06:21N 51°54' W 008°28'0 0.0
2019-Sep-07 05:21N 51°54' W 008°28'0 0.0
2019-Sep-07 04:39N 51°54' W 008°28'0 0.1
2019-Sep-07 04:09N 51°54' W 008°28'0 0.0
2019-Sep-07 02:57N 51°54' W 008°28'0 0.0
2019-Sep-07 02:15N 51°54' W 008°28'0 0.0
2019-Sep-07 01:57N 51°54' W 008°28'0 0.0
2019-Sep-07 01:27N 51°54' W 008°28'0 0.0
2019-Sep-07 00:45N 51°54' W 008°28'0 0.0
2019-Sep-07 00:27N 51°54' W 008°28'0 0.0
2019-Sep-06 23:57N 51°54' W 008°28'0 0.0
2019-Sep-06 23:27N 51°54' W 008°28'0 0.0
2019-Sep-06 22:57N 51°54' W 008°28'0 0.0
2019-Sep-06 22:27N 51°54' W 008°28'0 0.0
2019-Sep-06 21:57N 51°54' W 008°28'0 0.0
2019-Sep-06 21:27N 51°54' W 008°28'0 0.0
2019-Sep-06 20:57N 51°54' W 008°28'0 0.0
2019-Sep-06 20:30N 51°54' W 008°28'0 0.0
2019-Sep-06 19:57N 51°54' W 008°28'0 0.0
2019-Sep-06 19:27N 51°54' W 008°28'0 0.0
2019-Sep-06 18:51N 51°54' W 008°28'0 0.0
2019-Sep-06 18:21N 51°54' W 008°28'0 0.0
2019-Sep-06 17:27N 51°54' W 008°28'0 0.0
2019-Sep-06 16:30N 51°54' W 008°28'0 0.0
2019-Sep-06 16:00N 51°54' W 008°28'0 0.0
2019-Sep-06 15:27N 51°54' W 008°28'0 0.0
2019-Sep-06 15:00N 51°54' W 008°28'0 0.0
2019-Sep-06 14:27N 51°54' W 008°28'0 0.0
2019-Sep-06 14:00N 51°54' W 008°28'0 0.0
2019-Sep-06 13:30N 51°54' W 008°28'0 0.0
2019-Sep-06 13:00N 51°54' W 008°28'0 0.0
2019-Sep-06 12:30N 51°54' W 008°28'0 0.0
2019-Sep-06 12:00N 51°54' W 008°28'0 0.0
2019-Sep-06 11:27N 51°54' W 008°28'  
Track history (hours):
 
Tides and Currents Weather Stations Pressure Air Temp Water Temp Dewpoint Dewpoint Depression Visibility Wind Speed Wind Dir Waves Ship Positions

Pelican of London

Ship's website: http://www.adventureundersail.com/

Last reported at 2019-Sep-16 11:19 UTC. Time now 2019-Sep-21 21:23 UTC.
Position N 43°27' W 003°49'.

Length 35 m; draft 4 m.

Type: Other ship. MMSI: 235057366.

Date/timePositionNaut miles runAvg speedWind from/ knotsBaromVisibWave heightAir tempDewpointWater temp
2019-Sep-16 11:19N 43°27' W 003°49'1 0.1
2019-Sep-15 19:53N 43°28' W 003°48'0 0.0
2019-Sep-15 19:09N 43°28' W 003°48'0 0.0
2019-Sep-15 11:17N 43°28' W 003°48'0 0.0
2019-Sep-15 10:51N 43°28' W 003°48'0 0.0
2019-Sep-15 10:26N 43°28' W 003°48'0 0.0
2019-Sep-15 07:46N 43°28' W 003°48'0 0.0
2019-Sep-15 07:25N 43°28' W 003°48'0 0.0
2019-Sep-15 06:41N 43°28' W 003°48'0 0.0
2019-Sep-15 06:10N 43°28' W 003°48'0 0.0
2019-Sep-15 05:40N 43°28' W 003°48'0 0.0
2019-Sep-15 05:29N 43°28' W 003°48'0 0.0
2019-Sep-15 01:04N 43°28' W 003°48'0 0.0
2019-Sep-15 00:20N 43°28' W 003°48'0 0.0
2019-Sep-15 00:00N 43°28' W 003°48'0 0.0
2019-Sep-14 23:21N 43°28' W 003°48'0 0.0
2019-Sep-14 22:39N 43°28' W 003°48'0 0.0
2019-Sep-14 22:04N 43°28' W 003°48'0 0.0
2019-Sep-14 21:11N 43°28' W 003°48'0 0.0
2019-Sep-14 21:00N 43°28' W 003°48'0 0.0
2019-Sep-14 20:30N 43°28' W 003°48'0 0.0
2019-Sep-14 19:47N 43°28' W 003°48'0 0.0
2019-Sep-14 19:29N 43°28' W 003°48'0 0.0
2019-Sep-14 19:00N 43°28' W 003°48'0 0.0
2019-Sep-13 20:20N 43°28' W 003°48'0 0.0
2019-Sep-13 17:13N 43°28' W 003°48'0 0.0
2019-Sep-13 13:09N 43°28' W 003°48'0 0.0
2019-Sep-13 12:56N 43°28' W 003°48'0 0.0
2019-Sep-13 11:32N 43°28' W 003°48'0 0.0
2019-Sep-13 11:26N 43°28' W 003°48'0 0.0
2019-Sep-13 10:37N 43°28' W 003°48'0 0.0
2019-Sep-13 10:24N 43°28' W 003°48'0 0.0
2019-Sep-13 09:48N 43°28' W 003°48'0 0.0
2019-Sep-13 09:28N 43°28' W 003°48'0 0.0
2019-Sep-13 08:51N 43°28' W 003°48'0 0.0
2019-Sep-13 08:27N 43°28' W 003°48'0 0.0
2019-Sep-13 07:59N 43°28' W 003°48'0 0.0
2019-Sep-13 05:14N 43°28' W 003°48'0 0.0
2019-Sep-13 03:37N 43°28' W 003°48'0 0.0
2019-Sep-13 03:26N 43°28' W 003°48'0 0.0
2019-Sep-13 00:26N 43°28' W 003°48'0 0.0
2019-Sep-12 23:38N 43°28' W 003°48'0 0.1
2019-Sep-12 23:30N 43°28' W 003°48'0 0.0
2019-Sep-12 21:35N 43°28' W 003°48'0 0.0
2019-Sep-12 21:21N 43°28' W 003°48'0 0.0
2019-Sep-12 19:26N 43°28' W 003°48'0 0.0
2019-Sep-12 18:34N 43°28' W 003°48'0 0.0
2019-Sep-12 17:25N 43°28' W 003°48'0 0.0
2019-Sep-12 16:55N 43°28' W 003°48'0 0.0
2019-Sep-12 16:26N 43°28' W 003°48'0 0.0
2019-Sep-12 15:51N 43°28' W 003°48'0 0.0
2019-Sep-12 12:07N 43°28' W 003°48'0 0.0
2019-Sep-12 11:51N 43°28' W 003°48'0 0.0
2019-Sep-12 06:47N 43°28' W 003°48'0 0.0
2019-Sep-12 06:29N 43°28' W 003°48'0 0.0
2019-Sep-12 05:58N 43°28' W 003°48'0 0.0
2019-Sep-12 05:27N 43°28' W 003°48'0 0.0
2019-Sep-12 04:59N 43°28' W 003°48'0 0.0
2019-Sep-12 04:29N 43°28' W 003°48'0 0.0
2019-Sep-12 03:59N 43°28' W 003°48'0 0.0
2019-Sep-11 20:07N 43°28' W 003°48'0 0.0
2019-Sep-11 14:07N 43°28' W 003°48'0 0.0
2019-Sep-11 13:47N 43°28' W 003°48'0 0.0
2019-Sep-11 13:05N 43°28' W 003°48'0 0.1
2019-Sep-11 13:00N 43°28' W 003°48'5 2.6
2019-Sep-11 11:00N 43°33' W 003°47'2 4.8
2019-Sep-11 10:30N 43°35' W 003°49'4 4.9
2019-Sep-11 09:45N 43°38' W 003°51'  
2019-Sep-07 16:55N 51°20' W 008°12'2 5.3
2019-Sep-07 16:31N 51°22' W 008°12'3 5.4
2019-Sep-07 16:00N 51°25' W 008°13'3 5.4
2019-Sep-07 15:30N 51°27' W 008°14'3 5.1
2019-Sep-07 15:01N 51°30' W 008°14'2 4.7
2019-Sep-07 14:30N 51°32' W 008°15'2 4.9
2019-Sep-07 14:00N 51°34' W 008°15'3 5.0
2019-Sep-07 13:30N 51°37' W 008°15'3 5.0
2019-Sep-07 13:00N 51°40' W 008°16'3 5.2
2019-Sep-07 12:31N 51°42' W 008°16'3 5.5
2019-Sep-07 12:00N 51°45' W 008°16'3 5.4
2019-Sep-07 11:30N 51°48' W 008°16'2 4.5
2019-Sep-07 11:00N 51°50' W 008°16'1 2.8
2019-Sep-07 10:30N 51°51' W 008°18'1 2.8
2019-Sep-07 10:00N 51°51' W 008°20'2 3.8
2019-Sep-07 09:30N 51°53' W 008°21'2 4.2
2019-Sep-07 09:01N 51°54' W 008°24'2 3.8
2019-Sep-07 08:30N 51°54' W 008°28'0 0.2
2019-Sep-07 07:48N 51°54' W 008°28'0 0.0
2019-Sep-07 07:09N 51°54' W 008°28'0 0.1
2019-Sep-07 06:51N 51°54' W 008°28'0 0.0
2019-Sep-07 06:21N 51°54' W 008°28'0 0.0
2019-Sep-07 05:21N 51°54' W 008°28'0 0.0
2019-Sep-07 04:39N 51°54' W 008°28'0 0.1
2019-Sep-07 04:09N 51°54' W 008°28'0 0.0
2019-Sep-07 02:57N 51°54' W 008°28'0 0.0
2019-Sep-07 02:15N 51°54' W 008°28'0 0.0
2019-Sep-07 01:57N 51°54' W 008°28'0 0.0
2019-Sep-07 01:27N 51°54' W 008°28'0 0.0
2019-Sep-07 00:45N 51°54' W 008°28'0 0.0
2019-Sep-07 00:27N 51°54' W 008°28'0 0.0
2019-Sep-06 23:57N 51°54' W 008°28'0 0.0
2019-Sep-06 23:27N 51°54' W 008°28'0 0.0
2019-Sep-06 22:57N 51°54' W 008°28'0 0.0
2019-Sep-06 22:27N 51°54' W 008°28'0 0.0
2019-Sep-06 21:57N 51°54' W 008°28'0 0.0
2019-Sep-06 21:27N 51°54' W 008°28'0 0.0
2019-Sep-06 20:57N 51°54' W 008°28'0 0.0
2019-Sep-06 20:30N 51°54' W 008°28'0 0.0
2019-Sep-06 19:57N 51°54' W 008°28'0 0.0
2019-Sep-06 19:27N 51°54' W 008°28'0 0.0
2019-Sep-06 18:51N 51°54' W 008°28'0 0.0
2019-Sep-06 18:21N 51°54' W 008°28'0 0.0
2019-Sep-06 17:27N 51°54' W 008°28'0 0.0
2019-Sep-06 16:30N 51°54' W 008°28'0 0.0
2019-Sep-06 16:00N 51°54' W 008°28'0 0.0
2019-Sep-06 15:27N 51°54' W 008°28'0 0.0
2019-Sep-06 15:00N 51°54' W 008°28'0 0.0
2019-Sep-06 14:27N 51°54' W 008°28'0 0.0
2019-Sep-06 14:00N 51°54' W 008°28'0 0.0
2019-Sep-06 13:30N 51°54' W 008°28'0 0.0
2019-Sep-06 13:00N 51°54' W 008°28'0 0.0
2019-Sep-06 12:30N 51°54' W 008°28'0 0.0
2019-Sep-06 12:00N 51°54' W 008°28'0 0.0
2019-Sep-06 11:27N 51°54' W 008°28'  

Dump ship's entire track history